createdAt,value
2018-07-09T00:00:01.878Z,0.00
2018-07-09T00:01:01.862Z,0.00
2018-07-09T00:02:01.845Z,0.00
2018-07-09T00:03:02.581Z,0.00
2018-07-09T00:04:01.813Z,0.00
2018-07-09T00:05:01.796Z,0.00
2018-07-09T00:06:01.782Z,0.00
2018-07-09T00:07:01.766Z,0.00
2018-07-09T00:08:01.749Z,0.00
2018-07-09T00:09:01.740Z,0.00
2018-07-09T00:10:01.717Z,0.00
2018-07-09T00:11:01.702Z,0.00
2018-07-09T00:12:01.685Z,0.00
2018-07-09T00:13:01.670Z,0.00
2018-07-09T00:14:01.660Z,0.00
2018-07-09T00:15:01.638Z,0.00
2018-07-09T00:16:01.620Z,0.00
2018-07-09T00:17:01.605Z,0.00
2018-07-09T00:18:01.588Z,0.00
2018-07-09T00:19:01.574Z,0.00
2018-07-09T00:20:01.558Z,0.00
2018-07-09T00:21:01.541Z,0.00
2018-07-09T00:22:01.526Z,0.00
2018-07-09T00:23:01.508Z,0.00
2018-07-09T00:24:01.495Z,0.00
2018-07-09T00:25:01.476Z,0.00
2018-07-09T00:26:01.461Z,0.00
2018-07-09T00:27:01.444Z,0.00
2018-07-09T00:28:01.429Z,0.00
2018-07-09T00:29:01.412Z,0.00
2018-07-09T00:30:01.397Z,0.00
2018-07-09T00:31:01.380Z,0.00
2018-07-09T00:32:01.363Z,0.00
2018-07-09T00:33:01.353Z,0.00
2018-07-09T00:34:01.331Z,0.00
2018-07-09T00:35:03.569Z,0.00
2018-07-09T00:36:01.300Z,0.00
2018-07-09T00:37:01.282Z,0.00
2018-07-09T00:38:01.266Z,0.00
2018-07-09T00:39:01.251Z,0.00
2018-07-09T00:40:01.239Z,0.00
2018-07-09T00:41:01.219Z,0.00
2018-07-09T00:42:01.203Z,0.00
2018-07-09T00:43:01.187Z,0.00
2018-07-09T00:44:01.170Z,0.00
2018-07-09T00:45:01.154Z,0.00
2018-07-09T00:46:01.139Z,0.00
2018-07-09T00:47:01.121Z,0.00
2018-07-09T00:48:01.104Z,0.00
2018-07-09T00:49:01.093Z,0.00
2018-07-09T00:50:01.073Z,0.00
2018-07-09T00:51:01.140Z,0.00
2018-07-09T00:52:01.040Z,0.00
2018-07-09T00:53:01.025Z,0.00
2018-07-09T00:54:01.010Z,0.00
2018-07-09T00:55:00.992Z,0.00
2018-07-09T00:56:01.011Z,0.00
2018-07-09T00:57:00.959Z,0.00
2018-07-09T00:58:00.942Z,0.00
2018-07-09T00:59:00.928Z,0.00
2018-07-09T01:00:00.909Z,0.00
2018-07-09T01:01:00.892Z,0.00
2018-07-09T01:02:00.876Z,0.00
2018-07-09T01:03:00.860Z,0.00
2018-07-09T01:04:00.892Z,0.00
2018-07-09T01:05:00.826Z,0.00
2018-07-09T01:06:00.811Z,0.00
2018-07-09T01:07:00.794Z,0.00
2018-07-09T01:08:00.777Z,0.00
2018-07-09T01:09:00.761Z,0.00
2018-07-09T01:10:00.745Z,0.00
2018-07-09T01:11:00.743Z,0.00
2018-07-09T01:12:00.710Z,0.00
2018-07-09T01:13:02.196Z,0.00
2018-07-09T01:14:00.678Z,0.00
2018-07-09T01:15:00.662Z,0.00
2018-07-09T01:16:00.646Z,0.00
2018-07-09T01:17:00.630Z,0.00
2018-07-09T01:18:00.612Z,0.00
2018-07-09T01:19:00.596Z,0.00
2018-07-09T01:20:00.579Z,0.00
2018-07-09T01:21:00.561Z,0.00
2018-07-09T01:22:00.545Z,0.00
2018-07-09T01:23:00.529Z,0.00
2018-07-09T01:24:00.512Z,0.00
2018-07-09T01:25:00.494Z,0.00
2018-07-09T01:26:00.479Z,0.00
2018-07-09T01:27:00.463Z,0.00
2018-07-09T01:28:00.444Z,0.00
2018-07-09T01:29:00.429Z,0.00
2018-07-09T01:30:00.411Z,0.00
2018-07-09T01:31:00.396Z,0.00
2018-07-09T01:32:00.380Z,0.00
2018-07-09T01:33:00.360Z,0.00
2018-07-09T01:34:00.344Z,0.00
2018-07-09T01:35:01.078Z,0.00
2018-07-09T01:36:00.311Z,0.00
2018-07-09T01:37:00.293Z,0.00
2018-07-09T01:38:00.277Z,0.00
2018-07-09T01:39:00.261Z,0.00
2018-07-09T01:40:00.242Z,0.00
2018-07-09T01:41:00.226Z,0.00
2018-07-09T01:42:00.210Z,0.00
2018-07-09T01:43:00.192Z,0.00
2018-07-09T01:44:00.178Z,0.00
2018-07-09T01:45:00.159Z,0.00
2018-07-09T01:46:00.142Z,0.00
2018-07-09T01:47:00.124Z,0.00
2018-07-09T01:48:00.112Z,0.00
2018-07-09T01:49:00.090Z,0.00
2018-07-09T01:50:00.080Z,0.00
2018-07-09T01:51:00.056Z,0.00
2018-07-09T01:52:00.039Z,0.00
2018-07-09T01:53:00.033Z,0.00
2018-07-09T01:54:00.008Z,0.00
2018-07-09T01:54:59.987Z,0.00
2018-07-09T01:55:59.969Z,0.00
2018-07-09T01:56:59.955Z,0.00
2018-07-09T01:57:59.935Z,0.00
2018-07-09T01:58:59.922Z,0.00
2018-07-09T01:59:59.901Z,0.00
2018-07-09T02:00:59.884Z,0.00
2018-07-09T02:01:59.868Z,0.00
2018-07-09T02:02:59.851Z,0.00
2018-07-09T02:03:59.832Z,0.00
2018-07-09T02:04:59.816Z,0.00
2018-07-09T02:05:59.799Z,0.00
2018-07-09T02:06:59.782Z,0.00
2018-07-09T02:07:59.764Z,0.00
2018-07-09T02:08:59.748Z,0.00
2018-07-09T02:09:59.731Z,0.00
2018-07-09T02:10:59.714Z,0.00
2018-07-09T02:11:59.695Z,0.00
2018-07-09T02:12:59.678Z,0.00
2018-07-09T02:13:59.661Z,0.00
2018-07-09T02:14:59.644Z,0.00
2018-07-09T02:15:59.628Z,0.00
2018-07-09T02:16:59.611Z,0.00
2018-07-09T02:17:59.593Z,0.00
2018-07-09T02:18:59.576Z,0.00
2018-07-09T02:19:59.558Z,0.00
2018-07-09T02:20:59.541Z,0.00
2018-07-09T02:21:59.524Z,0.00
2018-07-09T02:22:59.506Z,0.00
2018-07-09T02:23:59.489Z,0.00
2018-07-09T02:24:59.474Z,0.00
2018-07-09T02:25:59.454Z,0.00
2018-07-09T02:26:59.437Z,0.00
2018-07-09T02:27:59.420Z,0.00
2018-07-09T02:28:59.404Z,0.00
2018-07-09T02:29:59.385Z,0.00
2018-07-09T02:30:59.369Z,0.00
2018-07-09T02:31:59.351Z,0.00
2018-07-09T02:32:59.333Z,0.00
2018-07-09T02:33:59.317Z,0.00
2018-07-09T02:34:59.299Z,0.00
2018-07-09T02:35:59.282Z,0.00
2018-07-09T02:36:59.267Z,0.00
2018-07-09T02:37:59.251Z,0.00
2018-07-09T02:38:59.235Z,0.00
2018-07-09T02:39:59.213Z,0.00
2018-07-09T02:40:59.196Z,0.00
2018-07-09T02:41:59.181Z,0.00
2018-07-09T02:42:59.911Z,0.00
2018-07-09T02:43:59.143Z,0.00
2018-07-09T02:44:59.126Z,0.00
2018-07-09T02:45:59.107Z,0.00
2018-07-09T02:46:59.091Z,0.00
2018-07-09T02:47:59.075Z,0.00
2018-07-09T02:48:59.062Z,0.00
2018-07-09T02:49:59.038Z,0.00
2018-07-09T02:50:59.021Z,0.00
2018-07-09T02:51:59.004Z,0.00
2018-07-09T02:52:58.986Z,0.00
2018-07-09T02:53:58.968Z,0.00
2018-07-09T02:54:58.953Z,0.00
2018-07-09T02:55:58.933Z,0.00
2018-07-09T02:56:58.915Z,0.00
2018-07-09T02:57:58.899Z,0.00
2018-07-09T02:58:58.881Z,0.00
2018-07-09T02:59:58.865Z,0.00
2018-07-09T03:00:58.894Z,0.00
2018-07-09T03:01:58.829Z,0.00
2018-07-09T03:02:58.811Z,0.00
2018-07-09T03:03:58.793Z,0.00
2018-07-09T03:04:58.775Z,0.00
2018-07-09T03:05:58.758Z,0.00
2018-07-09T03:06:58.741Z,4.00
2018-07-09T03:07:58.722Z,4.00
2018-07-09T03:08:58.707Z,4.00
2018-07-09T03:09:58.691Z,4.00
2018-07-09T03:10:58.670Z,0.00
2018-07-09T03:11:58.652Z,0.00
2018-07-09T03:12:58.635Z,4.00
2018-07-09T03:13:58.618Z,4.00
2018-07-09T03:14:58.602Z,4.00
2018-07-09T03:15:58.583Z,4.00
2018-07-09T03:16:58.566Z,4.00
2018-07-09T03:17:58.547Z,4.00
2018-07-09T03:18:58.576Z,4.00
2018-07-09T03:19:58.511Z,4.00
2018-07-09T03:20:58.496Z,8.00
2018-07-09T03:21:58.477Z,8.00
2018-07-09T03:22:58.459Z,8.00
2018-07-09T03:23:58.441Z,8.00
2018-07-09T03:24:58.423Z,12.00
2018-07-09T03:25:58.410Z,12.00
2018-07-09T03:26:58.388Z,12.00
2018-07-09T03:27:58.370Z,12.00
2018-07-09T03:28:58.355Z,16.00
2018-07-09T03:29:58.335Z,16.00
2018-07-09T03:30:58.318Z,20.00
2018-07-09T03:31:58.300Z,24.00
2018-07-09T03:32:58.282Z,24.00
2018-07-09T03:33:58.264Z,24.00
2018-07-09T03:34:58.248Z,28.00
2018-07-09T03:35:58.228Z,32.00
2018-07-09T03:36:58.211Z,32.00
2018-07-09T03:37:58.193Z,36.00
2018-07-09T03:38:58.176Z,40.00
2018-07-09T03:39:58.157Z,40.00
2018-07-09T03:40:58.142Z,48.00
2018-07-09T03:41:58.123Z,52.00
2018-07-09T03:42:58.106Z,56.00
2018-07-09T03:43:58.086Z,56.00
2018-07-09T03:44:58.069Z,64.00
2018-07-09T03:45:58.052Z,68.00
2018-07-09T03:46:58.035Z,72.00
2018-07-09T03:47:58.016Z,80.00
2018-07-09T03:48:57.998Z,84.00
2018-07-09T03:49:57.981Z,88.00
2018-07-09T03:50:57.963Z,96.00
2018-07-09T03:51:57.944Z,100.00
2018-07-09T03:52:57.928Z,104.00
2018-07-09T03:53:57.909Z,108.00
2018-07-09T03:54:57.891Z,116.00
2018-07-09T03:55:57.874Z,124.00
2018-07-09T03:56:57.856Z,132.00
2018-07-09T03:57:57.838Z,136.00
2018-07-09T03:58:57.820Z,144.00
2018-07-09T03:59:57.802Z,148.00
2018-07-09T04:00:57.784Z,152.00
2018-07-09T04:01:57.766Z,164.00
2018-07-09T04:02:57.750Z,168.00
2018-07-09T04:03:57.730Z,172.00
2018-07-09T04:04:57.713Z,180.00
2018-07-09T04:05:57.696Z,188.00
2018-07-09T04:06:57.678Z,196.00
2018-07-09T04:07:57.660Z,204.00
2018-07-09T04:08:57.642Z,208.00
2018-07-09T04:09:57.625Z,220.00
2018-07-09T04:10:57.607Z,224.00
2018-07-09T04:11:57.589Z,232.00
2018-07-09T04:12:57.571Z,236.00
2018-07-09T04:13:57.555Z,244.00
2018-07-09T04:14:57.539Z,252.00
2018-07-09T04:15:57.517Z,256.00
2018-07-09T04:16:57.500Z,264.00
2018-07-09T04:17:57.485Z,272.00
2018-07-09T04:18:57.467Z,276.00
2018-07-09T04:19:57.446Z,284.00
2018-07-09T04:20:57.488Z,292.00
2018-07-09T04:21:57.414Z,296.00
2018-07-09T04:22:58.145Z,308.00
2018-07-09T04:23:57.376Z,316.00
2018-07-09T04:24:57.359Z,324.00
2018-07-09T04:25:57.342Z,328.00
2018-07-09T04:26:57.327Z,332.00
2018-07-09T04:27:57.307Z,340.00
2018-07-09T04:28:57.290Z,344.00
2018-07-09T04:29:57.272Z,352.00
2018-07-09T04:30:57.255Z,356.00
2018-07-09T04:31:57.236Z,360.00
2018-07-09T04:32:57.219Z,364.00
2018-07-09T04:33:57.200Z,372.00
2018-07-09T04:34:57.182Z,372.00
2018-07-09T04:35:57.164Z,380.00
2018-07-09T04:36:57.149Z,384.00
2018-07-09T04:37:57.171Z,392.00
2018-07-09T04:38:57.112Z,396.00
2018-07-09T04:39:57.097Z,404.00
2018-07-09T04:40:57.076Z,408.00
2018-07-09T04:41:57.062Z,412.00
2018-07-09T04:42:57.042Z,416.00
2018-07-09T04:43:57.024Z,424.00
2018-07-09T04:44:57.007Z,428.00
2018-07-09T04:45:56.988Z,432.00
2018-07-09T04:46:56.971Z,440.00
2018-07-09T04:47:56.954Z,444.00
2018-07-09T04:48:56.935Z,448.00
2018-07-09T04:49:56.917Z,452.00
2018-07-09T04:50:56.902Z,456.00
2018-07-09T04:51:56.883Z,464.00
2018-07-09T04:52:56.866Z,468.00
2018-07-09T04:53:56.848Z,476.00
2018-07-09T04:54:56.830Z,476.00
2018-07-09T04:55:56.812Z,484.00
2018-07-09T04:56:56.794Z,484.00
2018-07-09T04:57:56.777Z,492.00
2018-07-09T04:58:56.760Z,496.00
2018-07-09T04:59:56.742Z,500.00
2018-07-09T05:00:56.725Z,504.00
2018-07-09T05:01:56.706Z,508.00
2018-07-09T05:02:56.690Z,516.00
2018-07-09T05:03:56.676Z,516.00
2018-07-09T05:04:56.682Z,520.00
2018-07-09T05:05:56.637Z,524.00
2018-07-09T05:06:56.620Z,528.00
2018-07-09T05:07:56.602Z,528.00
2018-07-09T05:08:56.584Z,532.00
2018-07-09T05:09:56.567Z,540.00
2018-07-09T05:10:56.549Z,540.00
2018-07-09T05:11:56.531Z,544.00
2018-07-09T05:12:56.519Z,544.00
2018-07-09T05:13:56.497Z,548.00
2018-07-09T05:14:56.481Z,556.00
2018-07-09T05:15:56.463Z,556.00
2018-07-09T05:16:56.451Z,560.00
2018-07-09T05:17:56.433Z,564.00
2018-07-09T05:18:56.410Z,568.00
2018-07-09T05:19:57.895Z,572.00
2018-07-09T05:20:56.374Z,576.00
2018-07-09T05:21:56.357Z,580.00
2018-07-09T05:22:56.340Z,584.00
2018-07-09T05:23:56.322Z,588.00
2018-07-09T05:24:56.305Z,592.00
2018-07-09T05:25:56.287Z,596.00
2018-07-09T05:26:56.270Z,600.00
2018-07-09T05:27:56.251Z,604.00
2018-07-09T05:28:56.234Z,608.00
2018-07-09T05:29:56.218Z,608.00
2018-07-09T05:30:56.200Z,612.00
2018-07-09T05:31:56.182Z,620.00
2018-07-09T05:32:56.166Z,620.00
2018-07-09T05:33:56.148Z,624.00
2018-07-09T05:34:56.131Z,628.00
2018-07-09T05:35:56.114Z,632.00
2018-07-09T05:36:56.096Z,640.00
2018-07-09T05:37:56.079Z,640.00
2018-07-09T05:38:56.061Z,644.00
2018-07-09T05:39:56.089Z,644.00
2018-07-09T05:40:56.029Z,648.00
2018-07-09T05:41:56.009Z,652.00
2018-07-09T05:42:55.992Z,660.00
2018-07-09T05:43:55.974Z,656.00
2018-07-09T05:44:55.960Z,664.00
2018-07-09T05:45:55.992Z,664.00
2018-07-09T05:46:55.941Z,672.00
2018-07-09T05:47:55.905Z,668.00
2018-07-09T05:48:55.888Z,668.00
2018-07-09T05:49:55.874Z,672.00
2018-07-09T05:50:55.853Z,676.00
2018-07-09T05:51:55.836Z,676.00
2018-07-09T05:52:55.822Z,680.00
2018-07-09T05:53:55.805Z,680.00
2018-07-09T05:54:55.786Z,684.00
2018-07-09T05:55:55.767Z,688.00
2018-07-09T05:56:55.751Z,692.00
2018-07-09T05:57:55.733Z,728.00
2018-07-09T05:58:55.731Z,696.00
2018-07-09T05:59:55.699Z,704.00
2018-07-09T06:00:55.683Z,704.00
2018-07-09T06:01:55.665Z,704.00
2018-07-09T06:02:59.402Z,708.00
2018-07-09T06:03:55.632Z,712.00
2018-07-09T06:04:55.614Z,728.00
2018-07-09T06:05:55.597Z,716.00
2018-07-09T06:06:55.581Z,716.00
2018-07-09T06:07:55.563Z,724.00
2018-07-09T06:08:56.297Z,720.00
2018-07-09T06:09:55.528Z,724.00
2018-07-09T06:10:55.517Z,728.00
2018-07-09T06:11:55.496Z,728.00
2018-07-09T06:12:55.477Z,736.00
2018-07-09T06:13:55.460Z,740.00
2018-07-09T06:14:55.443Z,756.00
2018-07-09T06:15:55.429Z,776.00
2018-07-09T06:16:55.409Z,744.00
2018-07-09T06:17:55.393Z,796.00
2018-07-09T06:18:55.377Z,748.00
2018-07-09T06:19:56.109Z,752.00
2018-07-09T06:20:55.342Z,756.00
2018-07-09T06:21:55.328Z,756.00
2018-07-09T06:22:55.309Z,760.00
2018-07-09T06:23:55.291Z,760.00
2018-07-09T06:24:55.275Z,764.00
2018-07-09T06:25:55.259Z,768.00
2018-07-09T06:26:55.243Z,764.00
2018-07-09T06:27:55.224Z,772.00
2018-07-09T06:28:55.209Z,768.00
2018-07-09T06:29:55.192Z,764.00
2018-07-09T06:30:55.174Z,776.00
2018-07-09T06:31:55.157Z,776.00
2018-07-09T06:32:55.141Z,780.00
2018-07-09T06:33:55.125Z,776.00
2018-07-09T06:34:55.108Z,776.00
2018-07-09T06:35:55.090Z,784.00
2018-07-09T06:36:55.075Z,776.00
2018-07-09T06:37:55.058Z,784.00
2018-07-09T06:38:55.046Z,788.00
2018-07-09T06:39:55.023Z,788.00
2018-07-09T06:40:55.007Z,796.00
2018-07-09T06:41:54.991Z,792.00
2018-07-09T06:42:54.976Z,796.00
2018-07-09T06:43:54.958Z,796.00
2018-07-09T06:44:54.941Z,796.00
2018-07-09T06:45:54.926Z,816.00
2018-07-09T06:46:54.912Z,804.00
2018-07-09T06:47:54.890Z,800.00
2018-07-09T06:48:54.874Z,800.00
2018-07-09T06:49:54.861Z,808.00
2018-07-09T06:50:54.842Z,808.00
2018-07-09T06:51:55.576Z,808.00
2018-07-09T06:52:54.807Z,812.00
2018-07-09T06:53:54.795Z,820.00
2018-07-09T06:54:54.775Z,820.00
2018-07-09T06:55:54.785Z,824.00
2018-07-09T06:56:54.742Z,828.00
2018-07-09T06:57:54.727Z,828.00
2018-07-09T06:58:54.710Z,836.00
2018-07-09T06:59:54.694Z,836.00
2018-07-09T07:00:54.678Z,840.00
2018-07-09T07:01:54.661Z,868.00
2018-07-09T07:02:54.646Z,836.00
2018-07-09T07:03:54.628Z,844.00
2018-07-09T07:04:54.612Z,844.00
2018-07-09T07:05:54.596Z,844.00
2018-07-09T07:06:54.584Z,848.00
2018-07-09T07:07:54.562Z,852.00
2018-07-09T07:08:54.575Z,856.00
2018-07-09T07:09:54.530Z,856.00
2018-07-09T07:10:54.514Z,856.00
2018-07-09T07:11:54.498Z,840.00
2018-07-09T07:12:54.487Z,860.00
2018-07-09T07:13:54.468Z,860.00
2018-07-09T07:14:54.451Z,880.00
2018-07-09T07:15:54.433Z,892.00
2018-07-09T07:16:54.420Z,868.00
2018-07-09T07:17:54.401Z,868.00
2018-07-09T07:18:54.385Z,868.00
2018-07-09T07:19:54.370Z,876.00
2018-07-09T07:20:54.402Z,876.00
2018-07-09T07:21:54.337Z,872.00
2018-07-09T07:22:54.327Z,872.00
2018-07-09T07:23:55.057Z,880.00
2018-07-09T07:24:54.295Z,880.00
2018-07-09T07:25:54.274Z,880.00
2018-07-09T07:26:54.258Z,880.00
2018-07-09T07:27:54.241Z,880.00
2018-07-09T07:28:54.228Z,884.00
2018-07-09T07:29:54.209Z,884.00
2018-07-09T07:30:54.193Z,884.00
2018-07-09T07:31:54.177Z,884.00
2018-07-09T07:32:54.162Z,884.00
2018-07-09T07:33:54.148Z,904.00
2018-07-09T07:34:54.131Z,888.00
2018-07-09T07:35:54.115Z,892.00
2018-07-09T07:36:54.098Z,888.00
2018-07-09T07:37:54.084Z,892.00
2018-07-09T07:38:54.068Z,892.00
2018-07-09T07:39:54.051Z,896.00
2018-07-09T07:40:54.035Z,900.00
2018-07-09T07:41:54.020Z,900.00
2018-07-09T07:42:54.005Z,904.00
2018-07-09T07:43:53.990Z,904.00
2018-07-09T07:44:54.066Z,920.00
2018-07-09T07:45:53.957Z,928.00
2018-07-09T07:46:53.942Z,912.00
2018-07-09T07:47:53.935Z,908.00
2018-07-09T07:48:53.914Z,908.00
2018-07-09T07:49:53.894Z,912.00
2018-07-09T07:50:55.382Z,948.00
2018-07-09T07:51:53.862Z,928.00
2018-07-09T07:52:53.847Z,916.00
2018-07-09T07:53:53.831Z,916.00
2018-07-09T07:54:53.815Z,916.00
2018-07-09T07:55:53.874Z,920.00
2018-07-09T07:56:54.537Z,920.00
2018-07-09T07:57:53.770Z,924.00
2018-07-09T07:58:53.754Z,924.00
2018-07-09T07:59:53.740Z,924.00
2018-07-09T08:00:53.723Z,924.00
2018-07-09T08:01:53.709Z,928.00
2018-07-09T08:02:53.729Z,928.00
2018-07-09T08:03:53.675Z,932.00
2018-07-09T08:04:53.660Z,932.00
2018-07-09T08:05:53.649Z,932.00
2018-07-09T08:06:53.648Z,932.00
2018-07-09T08:07:53.614Z,932.00
2018-07-09T08:08:53.598Z,932.00
2018-07-09T08:09:53.585Z,944.00
2018-07-09T08:10:53.570Z,936.00
2018-07-09T08:11:53.559Z,932.00
2018-07-09T08:13:13.742Z,952.00
2018-07-09T08:13:53.524Z,948.00
2018-07-09T08:14:53.507Z,940.00
2018-07-09T08:15:53.492Z,940.00
2018-07-09T08:16:53.478Z,940.00
2018-07-09T08:17:53.461Z,960.00
2018-07-09T08:18:53.449Z,944.00
2018-07-09T08:19:53.433Z,944.00
2018-07-09T08:20:53.415Z,952.00
2018-07-09T08:21:53.401Z,948.00
2018-07-09T08:22:53.385Z,960.00
2018-07-09T08:23:53.369Z,952.00
2018-07-09T08:24:53.436Z,964.00
2018-07-09T08:25:53.339Z,952.00
2018-07-09T08:26:53.324Z,956.00
2018-07-09T08:27:53.308Z,952.00
2018-07-09T08:28:55.545Z,960.00
2018-07-09T08:29:53.280Z,960.00
2018-07-09T08:30:53.265Z,968.00
2018-07-09T08:31:53.248Z,968.00
2018-07-09T08:32:53.237Z,968.00
2018-07-09T08:33:53.219Z,972.00
2018-07-09T08:34:53.956Z,972.00
2018-07-09T08:35:53.192Z,972.00
2018-07-09T08:36:53.177Z,980.00
2018-07-09T08:37:53.220Z,968.00
2018-07-09T08:38:53.145Z,972.00
2018-07-09T08:39:53.129Z,968.00
2018-07-09T08:40:53.114Z,968.00
2018-07-09T08:41:53.099Z,972.00
2018-07-09T08:42:53.084Z,960.00
2018-07-09T08:43:53.071Z,976.00
2018-07-09T08:44:53.054Z,968.00
2018-07-09T08:45:53.040Z,968.00
2018-07-09T08:46:53.026Z,972.00
2018-07-09T08:47:53.010Z,972.00
2018-07-09T08:48:52.996Z,976.00
2018-07-09T08:49:52.982Z,976.00
2018-07-09T08:50:52.968Z,976.00
2018-07-09T08:51:52.952Z,980.00
2018-07-09T08:52:52.937Z,972.00
2018-07-09T08:53:52.923Z,976.00
2018-07-09T08:54:52.908Z,976.00
2018-07-09T08:55:53.644Z,976.00
2018-07-09T08:56:52.878Z,976.00
2018-07-09T08:57:52.863Z,980.00
2018-07-09T08:58:52.850Z,976.00
2018-07-09T08:59:52.833Z,976.00
2018-07-09T09:00:52.824Z,976.00
2018-07-09T09:01:52.805Z,980.00
2018-07-09T09:02:52.792Z,980.00
2018-07-09T09:03:52.821Z,980.00
2018-07-09T09:04:52.761Z,980.00
2018-07-09T09:05:52.748Z,988.00
2018-07-09T09:06:53.534Z,1008.00
2018-07-09T09:07:52.717Z,1000.00
2018-07-09T09:08:52.703Z,992.00
2018-07-09T09:09:52.690Z,988.00
2018-07-09T09:10:52.675Z,984.00
2018-07-09T09:11:52.660Z,988.00
2018-07-09T09:12:52.646Z,992.00
2018-07-09T09:13:52.632Z,992.00
2018-07-09T09:14:52.617Z,1008.00
2018-07-09T09:15:52.602Z,996.00
2018-07-09T09:16:52.588Z,996.00
2018-07-09T09:17:52.577Z,996.00
2018-07-09T09:18:52.560Z,1000.00
2018-07-09T09:19:52.547Z,1000.00
2018-07-09T09:20:52.531Z,1004.00
2018-07-09T09:21:52.518Z,1008.00
2018-07-09T09:22:52.503Z,1008.00
2018-07-09T09:23:52.488Z,1012.00
2018-07-09T09:24:52.473Z,1012.00
2018-07-09T09:25:52.461Z,1016.00
2018-07-09T09:26:52.449Z,1012.00
2018-07-09T09:27:52.430Z,1020.00
2018-07-09T09:28:52.416Z,1024.00
2018-07-09T09:29:52.402Z,1020.00
2018-07-09T09:30:52.389Z,1024.00
2018-07-09T09:31:52.374Z,1024.00
2018-07-09T09:32:52.360Z,1028.00
2018-07-09T09:33:52.347Z,1032.00
2018-07-09T09:34:52.333Z,1032.00
2018-07-09T09:35:52.318Z,1032.00
2018-07-09T09:36:52.304Z,1040.00
2018-07-09T09:37:53.041Z,1044.00
2018-07-09T09:38:52.276Z,1044.00
2018-07-09T09:39:52.261Z,1048.00
2018-07-09T09:40:52.248Z,1048.00
2018-07-09T09:41:52.234Z,1048.00
2018-07-09T09:42:52.220Z,1048.00
2018-07-09T09:43:52.206Z,1048.00
2018-07-09T09:44:52.192Z,1048.00
2018-07-09T09:45:52.178Z,1056.00
2018-07-09T09:46:52.165Z,1052.00
2018-07-09T09:47:52.149Z,1056.00
2018-07-09T09:48:52.135Z,1060.00
2018-07-09T09:49:52.122Z,1060.00
2018-07-09T09:50:52.109Z,1064.00
2018-07-09T09:51:52.095Z,1060.00
2018-07-09T09:52:52.080Z,1072.00
2018-07-09T09:53:52.066Z,1064.00
2018-07-09T09:54:52.101Z,1068.00
2018-07-09T09:55:52.040Z,1072.00
2018-07-09T09:56:52.025Z,1076.00
2018-07-09T09:57:52.012Z,1076.00
2018-07-09T09:58:52.748Z,1084.00
2018-07-09T09:59:51.983Z,1088.00
2018-07-09T10:00:51.969Z,1088.00
2018-07-09T10:01:51.956Z,1092.00
2018-07-09T10:02:51.943Z,1096.00
2018-07-09T10:03:51.928Z,1096.00
2018-07-09T10:04:51.915Z,1096.00
2018-07-09T10:05:51.902Z,1104.00
2018-07-09T10:06:51.887Z,1104.00
2018-07-09T10:07:51.875Z,1108.00
2018-07-09T10:08:51.861Z,1100.00
2018-07-09T10:09:51.847Z,1112.00
2018-07-09T10:10:51.832Z,1116.00
2018-07-09T10:11:51.818Z,1124.00
2018-07-09T10:12:51.804Z,1136.00
2018-07-09T10:13:51.791Z,1140.00
2018-07-09T10:14:51.778Z,1148.00
2018-07-09T10:15:51.763Z,1152.00
2018-07-09T10:16:51.793Z,1156.00
2018-07-09T10:17:51.740Z,1156.00
2018-07-09T10:18:51.723Z,1144.00
2018-07-09T10:19:51.710Z,1152.00
2018-07-09T10:20:51.697Z,1152.00
2018-07-09T10:21:51.683Z,1152.00
2018-07-09T10:22:51.708Z,1160.00
2018-07-09T10:23:51.655Z,1164.00
2018-07-09T10:24:51.642Z,1164.00
2018-07-09T10:25:51.631Z,1164.00
2018-07-09T10:26:51.617Z,1164.00
2018-07-09T10:27:51.601Z,1152.00
2018-07-09T10:28:51.595Z,1156.00
2018-07-09T10:29:51.576Z,1156.00
2018-07-09T10:30:51.569Z,1148.00
2018-07-09T10:31:51.551Z,1140.00
2018-07-09T10:32:51.535Z,1136.00
2018-07-09T10:33:51.521Z,1124.00
2018-07-09T10:34:51.510Z,1124.00
2018-07-09T10:35:52.245Z,1124.00
2018-07-09T10:36:51.482Z,1128.00
2018-07-09T10:37:51.472Z,1124.00
2018-07-09T10:38:51.456Z,1148.00
2018-07-09T10:39:51.444Z,1128.00
2018-07-09T10:40:51.430Z,1136.00
2018-07-09T10:41:51.415Z,1140.00
2018-07-09T10:42:51.402Z,1148.00
2018-07-09T10:43:51.388Z,1156.00
2018-07-09T10:44:51.375Z,1156.00
2018-07-09T10:45:51.362Z,1156.00
2018-07-09T10:46:54.354Z,1156.00
2018-07-09T10:47:51.341Z,1164.00
2018-07-09T10:48:51.323Z,1164.00
2018-07-09T10:49:51.310Z,1164.00
2018-07-09T10:50:51.299Z,1168.00
2018-07-09T10:51:51.283Z,1172.00
2018-07-09T10:52:52.021Z,1168.00
2018-07-09T10:53:51.260Z,1168.00
2018-07-09T10:54:51.247Z,1152.00
2018-07-09T10:55:51.231Z,1172.00
2018-07-09T10:56:51.219Z,1156.00
2018-07-09T10:57:51.208Z,1168.00
2018-07-09T10:58:51.193Z,1172.00
2018-07-09T10:59:51.180Z,1168.00
2018-07-09T11:00:51.266Z,1184.00
2018-07-09T11:01:51.154Z,1188.00
2018-07-09T11:02:51.141Z,1184.00
2018-07-09T11:03:51.127Z,1176.00
2018-07-09T11:04:51.115Z,1172.00
2018-07-09T11:05:51.104Z,1168.00
2018-07-09T11:06:51.090Z,1168.00
2018-07-09T11:07:51.076Z,1176.00
2018-07-09T11:08:51.064Z,1180.00
2018-07-09T11:09:51.050Z,1184.00
2018-07-09T11:10:51.037Z,1184.00
2018-07-09T11:11:51.026Z,1184.00
2018-07-09T11:12:51.012Z,1196.00
2018-07-09T11:13:51.000Z,1188.00
2018-07-09T11:14:50.987Z,1188.00
2018-07-09T11:15:50.975Z,1188.00
2018-07-09T11:16:50.962Z,1196.00
2018-07-09T11:17:50.949Z,1180.00
2018-07-09T11:18:50.936Z,1176.00
2018-07-09T11:19:50.923Z,1180.00
2018-07-09T11:20:50.910Z,1260.00
2018-07-09T11:21:50.897Z,1384.00
2018-07-09T11:22:50.887Z,1500.00
2018-07-09T11:23:50.871Z,1580.00
2018-07-09T11:24:50.858Z,1360.00
2018-07-09T11:25:50.847Z,1280.00
2018-07-09T11:26:50.834Z,1168.00
2018-07-09T11:27:50.820Z,1156.00
2018-07-09T11:28:50.809Z,1152.00
2018-07-09T11:29:50.797Z,1144.00
2018-07-09T11:30:50.783Z,1152.00
2018-07-09T11:31:50.771Z,1144.00
2018-07-09T11:32:50.757Z,1144.00
2018-07-09T11:33:50.745Z,1140.00
2018-07-09T11:34:50.732Z,1148.00
2018-07-09T11:35:50.719Z,1144.00
2018-07-09T11:36:50.707Z,1160.00
2018-07-09T11:37:50.694Z,1184.00
2018-07-09T11:38:50.682Z,1156.00
2018-07-09T11:39:50.669Z,1152.00
2018-07-09T11:40:50.656Z,1152.00
2018-07-09T11:41:50.643Z,1144.00
2018-07-09T11:42:50.631Z,1144.00
2018-07-09T11:43:50.619Z,1140.00
2018-07-09T11:44:50.668Z,1124.00
2018-07-09T11:45:50.593Z,1140.00
2018-07-09T11:46:50.581Z,1144.00
2018-07-09T11:47:50.569Z,1148.00
2018-07-09T11:48:50.557Z,1152.00
2018-07-09T11:49:50.543Z,1152.00
2018-07-09T11:50:52.785Z,1156.00
2018-07-09T11:51:50.518Z,1160.00
2018-07-09T11:52:50.506Z,1164.00
2018-07-09T11:53:50.495Z,1164.00
2018-07-09T11:54:50.485Z,1164.00
2018-07-09T11:55:50.470Z,1160.00
2018-07-09T11:56:51.959Z,1164.00
2018-07-09T11:57:50.446Z,1168.00
2018-07-09T11:58:50.477Z,1172.00
2018-07-09T11:59:50.420Z,1176.00
2018-07-09T12:00:50.408Z,1172.00
2018-07-09T12:01:50.400Z,1168.00
2018-07-09T12:02:53.388Z,1172.00
2018-07-09T12:03:50.369Z,1192.00
2018-07-09T12:04:50.382Z,1176.00
2018-07-09T12:05:50.345Z,1172.00
2018-07-09T12:06:50.333Z,1184.00
2018-07-09T12:07:50.320Z,1224.00
2018-07-09T12:08:50.314Z,1292.00
2018-07-09T12:09:50.297Z,1304.00
2018-07-09T12:10:50.285Z,1236.00
2018-07-09T12:11:50.272Z,1208.00
2018-07-09T12:12:50.260Z,1208.00
2018-07-09T12:13:50.253Z,1188.00
2018-07-09T12:14:50.235Z,1172.00
2018-07-09T12:15:50.226Z,1148.00
2018-07-09T12:16:50.211Z,1148.00
2018-07-09T12:17:50.199Z,1140.00
2018-07-09T12:18:50.188Z,1144.00
2018-07-09T12:19:50.176Z,1152.00
2018-07-09T12:20:50.167Z,1160.00
2018-07-09T12:21:50.151Z,1168.00
2018-07-09T12:22:50.138Z,1180.00
2018-07-09T12:23:50.130Z,1196.00
2018-07-09T12:24:50.112Z,1204.00
2018-07-09T12:25:50.102Z,1208.00
2018-07-09T12:26:50.097Z,1208.00
2018-07-09T12:27:50.078Z,1200.00
2018-07-09T12:28:50.129Z,1200.00
2018-07-09T12:29:51.555Z,1188.00
2018-07-09T12:30:50.041Z,1168.00
2018-07-09T12:31:50.029Z,1176.00
2018-07-09T12:32:50.020Z,1172.00
2018-07-09T12:33:50.006Z,1172.00
2018-07-09T12:34:49.998Z,1180.00